Terminal Aerodrome Forecast
Issued by NWS Pendleton, OR

Home | Current Version | Previous Version | Text Only | Print | Product List | Glossary On
Versions: 1 2 3 4 5 6 7 8 9 10 11 12 13
000
FTUS46 KPDT 291128
TAFPDT
TAF
KPDT 291128Z 2912/3012 11006KT P6SM BKN150
     FM291500 25010G20KT 6SM BLDU SCT090 BKN150
     FM291800 28025G35KT 3SM BLDU BKN080
     FM300000 28017G25KT 6SM BLDU BKN100
     FM300300 27011KT P6SM SCT080
     FM300700 19007KT P6SM SCT060 BKN090=

USA.gov is the U.S. government's official web portal to all federal, state and local government web resources and services.